Estillfork, AL (35745)

2:27 AM CDT on August 30, 2015 (GMT -0500)
Whites Gap, Huntland | | Change Station
CLOSE
Current Station
Personal Weather Station
Location: Huntland, TN
Elevation: 1061 ft
Nearby Weather Stations

Elev 1061 ft 35.01 °N, 86.27 °W | Updated 3 seconds ago

Overcast
Overcast
68.4 °F
Feels Like 68.4 °F
N
0.9
Wind Variable Wind from SSE
Gusts 1.0 mph

Today
High -- | Low -- °F
--% Chance of Precip.
Yesterday
High -- | Low -- °F
Precip. -- in
6:15 AM 7:14 PM
Full, 100% visible
Pressure 30.11 in
Visibility 1.0 miles
Clouds Overcast 200 ft
Dew Point 68 °F
Humidity 97%
Rainfall 0.01 in
Snow Depth Not available.
UV 0 out of 12
Pollen 9.20 out of 12
Air Quality Not available.
Flu Activity Not available.
METAR K4A6 300715Z AUTO 00000KT 1SM BR OVC002 20/20 A3011 RMK AO2
Pressure 30.11 in
Visibility 1.0 miles
Clouds Overcast 200 ft
Dew Point 68 °F
Humidity 97%
Rainfall 0.01 in
Snow Depth Not available.
UV 0 out of 12
Pollen 9.20 out of 12
Air Quality Not available.
Flu Activity Not available.
METAR K4A6 300715Z AUTO 00000KT 1SM BR OVC002 20/20 A3011 RMK AO2

10-Day Weather Forecast

×

Almanac

Astronomy

Aug. 30, 2015 Rise Set
Actual Time
Civil Twilight
Nautical Twilight
Astronomical Twilight
Moon
Length of Visible Light
Length of Day
Tomorrow will be .
, % of the Moon is Illuminated

Today's Extremes

State Highs State Lows

Community

WunderPhotos

Upload Photos

1,850,904 photos uploaded!

WunderBlogs® & News

Nearby

Air Quality

  Air Quality AQ Index Pollutant
Not available.

Snow Depth

Station Depth Elevation

Earthquake Activity

City Distance Mag. Time & Date
Minimum magnitude displayed is 2.5.

Coastal Water Temperatures

Place Temperature

Stations

Nearby Weather Stations

Station Location Temp. Windchill Dew Point Humidity Wind Precip. Elev Updated Type